Time;durP1;ratioP1;P1;durP2;ratioP2;P2;SDS_P1;SDS_P2;PMS_P1;PMS_P2;Temp;Humidity;BMP_temperature;BMP_pressure;BME280_temperature;BME280_humidity;BME280_pressure;Samples;Min_cycle;Max_cycle;Signal;HPM_P1;HPM_P2
2021/09/30 00:00:15;;;;;;;2.20;0.50;;;;;;;27.27;33.48;97632.75;5023389;28;20028;-36
2021/09/30 00:02:40;;;;;;;1.95;0.50;;;;;;;27.27;33.47;97632.75;5021219;28;20037;-38
2021/09/30 00:05:06;;;;;;;0.82;0.40;;;;;;;27.27;33.47;97630.13;5024703;28;20083;-31
2021/09/30 00:07:32;;;;;;;2.38;0.57;;;;;;;27.27;33.21;97630.13;5023554;28;20025;-34
2021/09/30 00:09:57;;;;;;;2.53;0.57;;;;;;;27.26;33.39;97636.28;5015903;28;20060;-28
2021/09/30 00:12:26;;;;;;;2.40;0.68;;;;;;;27.25;33.40;97634.59;5017263;28;20040;-40
2021/09/30 00:15:01;;;;;;;2.63;0.68;;;;;;;27.26;33.39;97633.66;5018495;28;21723;-34
2021/09/30 00:45:30;;;;;;;0.63;0.22;;;;;;;27.22;33.55;97642.59;5009042;28;20407;-32
2021/09/30 01:57:59;;;;;;;2.05;0.40;;;;;;;27.15;33.45;97692.03;5018277;28;20035;-37
2021/09/30 02:22:31;;;;;;;0.43;0.20;;;;;;;27.12;33.58;97686.91;5003300;28;20203;-36
2021/09/30 02:28:10;;;;;;;2.13;0.30;;;;;;;27.12;33.68;97687.75;5017973;28;20044;-30
2021/09/30 03:00:49;;;;;;;1.33;0.47;;;;;;;27.09;33.74;97692.31;5000636;28;20049;-35
2021/09/30 03:03:14;;;;;;;1.02;0.25;;;;;;;27.10;33.59;97694.88;5005954;28;20031;-33
2021/09/30 03:05:40;;;;;;;0.52;0.30;;;;;;;27.10;33.52;97691.38;5002131;28;20032;-33
2021/09/30 03:08:06;;;;;;;0.40;0.22;;;;;;;27.10;33.69;97692.25;5016174;28;20028;-33
2021/09/30 03:10:31;;;;;;;1.02;0.40;;;;;;;27.09;33.51;97689.69;5017832;28;20033;-32
2021/09/30 03:12:56;;;;;;;0.68;0.32;;;;;;;27.10;33.61;97691.38;5012405;28;20606;-36
2021/09/30 03:17:54;;;;;;;0.47;0.20;;;;;;;27.09;33.87;97695.81;5020491;28;20606;-35
2021/09/30 03:23:08;;;;;;;0.88;0.45;;;;;;;27.09;33.69;97695.81;5006828;28;20518;-36
2021/09/30 03:25:33;;;;;;;0.63;0.32;;;;;;;27.09;33.62;97698.44;5016927;28;20040;-36
2021/09/30 03:27:59;;;;;;;0.60;0.25;;;;;;;27.08;33.66;97699.34;5008020;28;20044;-34
2021/09/30 03:30:26;;;;;;;0.57;0.25;;;;;;;27.09;33.61;97705.47;5014901;28;20404;-30
2021/09/30 03:32:52;;;;;;;1.65;0.30;;;;;;;27.09;33.64;97703.69;5018972;28;20667;-32
2021/09/30 03:35:17;;;;;;;0.98;0.40;;;;;;;27.09;33.62;97711.59;5010674;28;20087;-34
2021/09/30 03:37:43;;;;;;;2.45;0.40;;;;;;;27.09;33.60;97702.84;5013663;28;20029;-35
2021/09/30 03:40:08;;;;;;;0.60;0.35;;;;;;;27.08;33.60;97698.50;5013559;28;20106;-34
2021/09/30 03:42:34;;;;;;;0.82;0.38;;;;;;;27.08;33.49;97701.97;5015439;28;20569;-35
2021/09/30 03:44:59;;;;;;;0.60;0.20;;;;;;;27.08;33.61;97707.22;5009842;28;20025;-29
2021/09/30 03:47:24;;;;;;;0.30;0.30;;;;;;;27.08;33.59;97707.22;5013763;28;20205;-35
2021/09/30 03:49:51;;;;;;;0.55;0.10;;;;;;;27.08;33.53;97717.75;5011752;28;20162;-32
2021/09/30 03:55:06;;;;;;;0.47;0.40;;;;;;;27.08;33.50;97723.00;5020032;28;20037;-32
2021/09/30 04:00:22;;;;;;;0.10;0.10;;;;;;;27.08;33.54;97717.75;4997921;28;20045;-32
2021/09/30 04:02:48;;;;;;;1.13;0.20;;;;;;;27.08;33.60;97717.75;5015055;28;20853;-35
2021/09/30 04:05:13;;;;;;;0.88;0.40;;;;;;;27.09;33.55;97723.88;5014910;28;20025;-35
2021/09/30 04:07:39;;;;;;;1.17;0.40;;;;;;;27.08;33.53;97727.44;5032678;28;20410;-31
2021/09/30 04:10:05;;;;;;;0.77;0.40;;;;;;;27.07;33.51;97723.94;5013752;28;20032;-33
2021/09/30 04:12:30;;;;;;;0.80;0.40;;;;;;;27.06;33.62;97724.88;5022060;28;20044;-32
2021/09/30 04:14:55;;;;;;;0.38;0.20;;;;;;;27.07;33.62;97729.19;5022704;28;20669;-33
2021/09/30 04:17:21;;;;;;;0.60;0.47;;;;;;;27.06;33.65;97722.25;5024026;28;20447;-35
2021/09/30 04:19:46;;;;;;;0.50;0.32;;;;;;;27.06;33.66;97724.00;5023626;28;20044;-33
2021/09/30 04:22:12;;;;;;;0.47;0.28;;;;;;;27.06;33.67;97722.25;5024284;28;20036;-36
2021/09/30 04:24:39;;;;;;;1.80;0.40;;;;;;;27.06;33.51;97727.50;5025721;28;20640;-35
2021/09/30 04:27:05;;;;;;;0.40;0.28;;;;;;;27.06;33.62;97735.38;5016953;28;20025;-31
2021/09/30 04:29:30;;;;;;;0.77;0.30;;;;;;;27.06;33.62;97726.63;5015955;28;20632;-32
2021/09/30 04:31:56;;;;;;;0.88;0.40;;;;;;;27.06;33.54;97731.91;5020744;28;20041;-34
2021/09/30 04:34:22;;;;;;;0.35;0.30;;;;;;;27.06;33.55;97724.00;5024691;28;20037;-32
2021/09/30 04:36:47;;;;;;;1.00;0.22;;;;;;;27.05;33.55;97725.78;5023139;28;20029;-34
2021/09/30 04:39:14;;;;;;;0.17;0.17;;;;;;;27.05;33.63;97727.56;5024396;28;20033;-33
2021/09/30 04:41:43;;;;;;;0.52;0.30;;;;;;;27.06;33.56;97718.75;5020189;28;20028;-34
2021/09/30 04:44:08;;;;;;;0.93;0.30;;;;;;;27.05;33.24;97717.03;5008575;28;20484;-35
2021/09/30 04:46:34;;;;;;;1.42;0.35;;;;;;;27.04;33.26;97720.59;5019200;28;20032;-34
2021/09/30 04:48:59;;;;;;;0.43;0.30;;;;;;;27.04;33.39;97716.16;5022745;28;20032;-33
2021/09/30 04:51:25;;;;;;;0.57;0.30;;;;;;;27.04;33.57;97718.81;5024291;28;20036;-30
2021/09/30 04:53:50;;;;;;;0.57;0.30;;;;;;;27.03;33.47;97725.00;5021330;28;20029;-31
2021/09/30 04:56:16;;;;;;;0.45;0.25;;;;;;;27.03;33.37;97726.78;5024854;28;20040;-29
2021/09/30 04:58:41;;;;;;;1.23;0.40;;;;;;;27.04;33.54;97737.22;5023151;28;20037;-38
2021/09/30 05:01:06;;;;;;;0.95;0.32;;;;;;;27.03;33.36;97730.25;5025160;28;20029;-34
2021/09/30 05:03:32;;;;;;;0.75;0.20;;;;;;;27.03;33.55;97725.00;5026647;28;20542;-34
2021/09/30 05:05:57;;;;;;;0.68;0.40;;;;;;;27.02;33.58;97736.44;5024422;28;20445;-32
2021/09/30 05:08:23;;;;;;;0.73;0.20;;;;;;;27.02;33.50;97728.56;5021289;28;20017;-37
2021/09/30 05:10:50;;;;;;;6.95;0.50;;;;;;;27.01;33.60;97732.13;5020890;28;20800;-37
2021/09/30 05:13:22;;;;;;;0.65;0.30;;;;;;;27.02;33.63;97733.81;5022235;28;20037;-34
2021/09/30 05:15:47;;;;;;;0.52;0.30;;;;;;;27.02;33.60;97730.31;5026079;28;20036;-34
2021/09/30 05:18:13;;;;;;;1.08;0.28;;;;;;;27.01;33.55;97742.63;5022021;28;20033;-38
2021/09/30 05:20:39;;;;;;;0.57;0.30;;;;;;;27.01;33.51;97737.38;5022722;28;20059;-35
2021/09/30 05:23:04;;;;;;;0.40;0.22;;;;;;;26.97;33.50;97733.16;5021502;28;20036;-35
2021/09/30 05:25:30;;;;;;;1.20;0.20;;;;;;;27.00;33.47;97751.41;5025370;28;20025;-34
2021/09/30 05:27:55;;;;;;;1.20;0.30;;;;;;;27.01;33.66;97753.16;5020573;28;20029;-36
2021/09/30 05:30:21;;;;;;;1.17;0.40;;;;;;;27.02;33.53;97757.50;5015637;28;20032;-33
2021/09/30 05:32:46;;;;;;;0.20;0.20;;;;;;;27.00;33.54;97757.56;5020836;28;20116;-35
2021/09/30 05:35:12;;;;;;;0.40;0.22;;;;;;;27.00;33.59;97756.69;5024375;28;20048;-34
2021/09/30 05:37:37;;;;;;;0.45;0.22;;;;;;;27.01;33.56;97758.41;5020678;28;20034;-33
2021/09/30 05:40:03;;;;;;;0.40;0.30;;;;;;;26.99;33.52;97760.25;5024215;28;20464;-31
2021/09/30 05:42:29;;;;;;;0.70;0.10;;;;;;;27.00;33.56;97756.69;5025094;28;20064;-34
2021/09/30 05:44:54;;;;;;;0.65;0.25;;;;;;;26.99;33.55;97760.25;5026429;28;20514;-35
2021/09/30 05:47:20;;;;;;;0.10;0.10;;;;;;;26.99;33.55;97752.34;5019081;28;20025;-34
2021/09/30 05:49:45;;;;;;;0.20;0.20;;;;;;;26.98;33.60;97758.53;5022696;28;20036;-36
2021/09/30 05:52:11;;;;;;;4.43;0.30;;;;;;;26.98;33.61;97758.53;5021490;28;20044;-37
2021/09/30 05:54:36;;;;;;;0.22;0.17;;;;;;;26.98;33.57;97763.78;5018776;28;20029;-32
2021/09/30 05:57:01;;;;;;;0.57;0.22;;;;;;;26.98;33.63;97759.41;5015548;28;20275;-34
2021/09/30 05:59:27;;;;;;;0.63;0.22;;;;;;;26.98;33.51;97758.53;5010807;28;20507;-31
2021/09/30 06:12:22;;;;;;;0.40;0.20;;;;;;;26.97;33.61;97752.41;5001601;28;20219;-36
2021/09/30 06:14:48;;;;;;;0.22;0.10;;;;;;;26.96;33.67;97763.84;5024411;28;20682;-34
2021/09/30 06:17:14;;;;;;;0.73;0.30;;;;;;;26.96;33.59;97760.41;5023075;28;20446;-35
2021/09/30 06:19:39;;;;;;;2.65;0.40;;;;;;;26.96;33.53;97760.41;5019783;28;20025;-30
2021/09/30 06:22:07;;;;;;;2.50;0.30;;;;;;;26.96;33.56;97768.28;5020683;28;20566;-30
2021/09/30 06:24:32;;;;;;;0.35;0.20;;;;;;;26.96;33.51;97771.75;5018231;28;20033;-38
2021/09/30 06:26:58;;;;;;;1.30;0.43;;;;;;;26.95;33.43;97779.69;5019160;28;20067;-36
2021/09/30 06:29:23;;;;;;;0.73;0.22;;;;;;;26.96;33.50;97781.44;5018754;28;20025;-35
2021/09/30 06:31:48;;;;;;;1.45;0.30;;;;;;;26.95;33.51;97775.31;5016544;28;20118;-36
2021/09/30 06:34:14;;;;;;;2.35;0.28;;;;;;;26.93;33.63;97776.25;5019225;28;20415;-34
2021/09/30 06:36:39;;;;;;;6.72;0.50;;;;;;;26.97;33.66;97775.25;5019729;28;20521;-31
2021/09/30 06:39:05;;;;;;;3.50;0.90;;;;;;;26.95;33.48;97769.19;5018603;28;20668;-35
2021/09/30 06:41:30;;;;;;;4.53;0.55;;;;;;;26.97;33.58;97777.88;5016170;28;20043;-30
2021/09/30 06:43:55;;;;;;;5.10;0.88;;;;;;;26.97;33.51;97775.25;5016216;28;20059;-35
2021/09/30 06:46:22;;;;;;;4.63;1.55;;;;;;;26.96;33.38;97779.63;5018514;28;20033;-31
2021/09/30 06:48:47;;;;;;;10.57;1.80;;;;;;;26.96;32.08;97784.06;5016380;28;20025;-30
2021/09/30 06:51:13;;;;;;;4.32;1.42;;;;;;;26.93;31.27;97787.63;5020772;28;20390;-33
2021/09/30 06:53:38;;;;;;;11.77;2.35;;;;;;;26.93;30.74;97792.03;5010044;28;21330;-31
2021/09/30 06:56:07;;;;;;;11.10;2.65;;;;;;;26.90;30.43;97794.78;5017935;28;20040;-33
2021/09/30 06:58:35;;;;;;;7.20;2.38;;;;;;;26.87;30.53;97793.16;5017075;28;20044;-35
2021/09/30 07:01:01;;;;;;;8.15;1.95;;;;;;;26.84;30.27;97788.88;5018261;28;20036;-36
2021/09/30 07:03:27;;;;;;;7.70;2.10;;;;;;;26.81;30.13;97794.25;5018198;28;20029;-32
2021/09/30 07:05:52;;;;;;;7.15;2.50;;;;;;;26.79;29.94;97796.09;5017359;28;20025;-37
2021/09/30 07:08:18;;;;;;;4.55;1.85;;;;;;;26.76;30.11;97796.22;5015881;28;20107;-32
2021/09/30 07:10:44;;;;;;;10.80;2.33;;;;;;;26.74;29.97;97795.44;5017077;28;20032;-29
2021/09/30 07:13:09;;;;;;;11.30;2.30;;;;;;;26.72;29.99;97794.63;5021076;28;20039;-33
2021/09/30 07:15:35;;;;;;;10.40;2.08;;;;;;;26.70;29.95;97791.22;5020133;28;20479;-37
2021/09/30 07:18:13;;;;;;;6.18;2.25;;;;;;;26.68;29.80;97800.94;5029415;28;20037;-38
2021/09/30 07:20:39;;;;;;;8.15;1.98;;;;;;;26.67;29.82;97802.72;4996056;28;20036;-34
2021/09/30 07:23:05;;;;;;;6.95;2.17;;;;;;;26.64;30.03;97801.97;5013260;28;20098;-36
2021/09/30 07:25:30;;;;;;;4.85;1.73;;;;;;;26.65;29.89;97803.72;4987752;28;20832;-31
2021/09/30 07:27:56;;;;;;;8.77;1.88;;;;;;;26.64;29.85;97807.25;5015412;28;21139;-34
2021/09/30 07:30:21;;;;;;;4.53;1.58;;;;;;;26.63;29.83;97816.06;5015674;28;20032;-36
2021/09/30 07:32:46;;;;;;;4.00;1.75;;;;;;;26.60;29.83;97812.63;5016790;28;20032;-33
2021/09/30 07:35:12;;;;;;;9.40;2.08;;;;;;;26.61;29.86;97805.59;4998198;28;20043;-32
2021/09/30 07:37:37;;;;;;;6.95;1.83;;;;;;;26.60;29.89;97809.16;5015261;28;20033;-28
2021/09/30 07:40:04;;;;;;;5.30;1.80;;;;;;;26.59;29.69;97804.81;5017970;28;20186;-37
2021/09/30 07:42:29;;;;;;;6.07;1.70;;;;;;;26.59;29.79;97810.06;5001653;28;20025;-36
2021/09/30 07:44:55;;;;;;;5.93;1.95;;;;;;;26.59;29.64;97816.16;5015996;28;20036;-34
2021/09/30 07:47:20;;;;;;;4.68;1.70;;;;;;;26.58;29.73;97814.47;5011099;28;20504;-34
2021/09/30 07:49:45;;;;;;;7.85;2.05;;;;;;;26.58;29.78;97819.72;5015748;28;20036;-34
2021/09/30 07:52:11;;;;;;;6.72;1.85;;;;;;;26.59;29.89;97816.16;5029067;28;20095;-33
2021/09/30 07:54:36;;;;;;;4.10;1.55;;;;;;;26.59;29.81;97815.34;5024105;28;20045;-31
2021/09/30 07:57:02;;;;;;;3.90;1.70;;;;;;;26.59;29.92;97816.16;5023580;28;20038;-34
2021/09/30 07:59:27;;;;;;;3.30;1.33;;;;;;;26.58;29.71;97819.72;5022275;28;20536;-33
2021/09/30 08:01:53;;;;;;;13.07;1.52;;;;;;;26.56;29.28;97818.94;5020489;28;20494;-31
2021/09/30 08:04:18;;;;;;;15.98;1.80;;;;;;;26.48;28.13;97818.38;5020292;28;20890;-33
2021/09/30 08:06:44;;;;;;;8.18;1.50;;;;;;;26.38;27.51;97812.63;5017677;28;20025;-36
2021/09/30 08:09:09;;;;;;;4.30;1.48;;;;;;;26.27;27.85;97805.16;4999452;28;20495;-33
2021/09/30 08:11:34;;;;;;;3.83;1.30;;;;;;;26.19;27.64;97809.81;5015474;28;20739;-33
2021/09/30 08:14:00;;;;;;;6.53;1.42;;;;;;;26.10;27.69;97806.63;5021836;28;20091;-33
2021/09/30 08:16:27;;;;;;;6.20;1.33;;;;;;;26.05;28.06;97810.38;5022253;28;20017;-36
2021/09/30 08:18:53;;;;;;;5.22;1.20;;;;;;;26.02;28.49;97806.09;5025461;28;20026;-37
2021/09/30 08:21:18;;;;;;;6.60;1.52;;;;;;;26.02;29.02;97806.09;5026459;28;20067;-33
2021/09/30 08:23:44;;;;;;;5.28;1.65;;;;;;;26.03;29.22;97810.44;5029858;28;20048;-34
2021/09/30 08:26:10;;;;;;;3.40;1.45;;;;;;;26.05;29.56;97803.34;5022477;28;20033;-33
2021/09/30 08:28:36;;;;;;;6.03;1.55;;;;;;;26.08;29.71;97813.72;5028116;28;20025;-33
2021/09/30 08:31:04;;;;;;;3.15;1.25;;;;;;;26.12;29.94;97811.00;5022821;28;20033;-30
2021/09/30 08:33:30;;;;;;;4.55;1.48;;;;;;;26.16;30.09;97810.81;5009979;28;20028;-32
2021/09/30 08:35:55;;;;;;;3.50;1.20;;;;;;;26.19;30.22;97807.19;5026086;28;20021;-33
2021/09/30 08:38:21;;;;;;;3.85;1.30;;;;;;;26.23;30.16;97808.78;5010429;28;20041;-34
2021/09/30 08:40:47;;;;;;;7.32;1.38;;;;;;;26.25;30.26;97804.34;5027289;28;20037;-31
2021/09/30 08:43:13;;;;;;;4.18;1.10;;;;;;;26.30;30.38;97798.94;5007526;28;20036;-35
2021/09/30 08:45:38;;;;;;;3.67;1.20;;;;;;;26.33;30.47;97799.69;5025474;28;20479;-37
2021/09/30 08:48:05;;;;;;;5.38;1.35;;;;;;;26.37;30.47;97794.28;5025916;28;20817;-33
2021/09/30 08:50:38;;;;;;;3.88;1.30;;;;;;;26.39;30.54;97789.84;5006672;28;20056;-29
2021/09/30 08:53:05;;;;;;;9.18;1.73;;;;;;;26.42;30.58;97792.31;5024426;28;20031;-34
2021/09/30 08:55:30;;;;;;;3.67;1.27;;;;;;;26.46;30.54;97793.91;5023882;28;21158;-33
2021/09/30 08:57:56;;;;;;;4.45;1.45;;;;;;;26.47;30.59;97795.66;5020757;28;20032;-36
2021/09/30 09:00:21;;;;;;;4.88;1.40;;;;;;;26.49;30.81;97793.81;5025273;28;20581;-33
2021/09/30 09:02:51;;;;;;;5.43;1.58;;;;;;;26.52;30.77;97798.94;5006070;28;20065;-32
2021/09/30 09:05:20;;;;;;;8.40;2.20;;;;;;;26.51;30.85;97797.25;5025148;28;20024;-37
2021/09/30 09:08:03;;;;;;;9.48;2.88;;;;;;;26.55;30.77;97793.53;5022706;28;20028;-30
2021/09/30 09:10:34;;;;;;;14.48;3.03;;;;;;;26.57;30.78;97796.13;5022687;28;20515;-35
2021/09/30 09:13:05;;;;;;;14.48;3.00;;;;;;;26.57;30.92;97791.72;5023544;28;20131;-31
2021/09/30 09:15:54;;;;;;;12.73;3.22;;;;;;;26.60;30.97;97791.63;5007088;28;20449;-29
2021/09/30 09:18:31;;;;;;;12.68;3.70;;;;;;;26.60;30.95;97791.63;5021837;28;20227;-34
2021/09/30 09:21:00;;;;;;;17.00;3.50;;;;;;;26.63;31.01;97795.03;5022770;28;20032;-36
2021/09/30 09:23:26;;;;;;;12.90;3.75;;;;;;;26.65;30.93;97803.72;5024653;28;20456;-35
2021/09/30 09:26:12;;;;;;;11.65;3.67;;;;;;;26.65;31.07;97798.47;5024286;28;20139;-37
2021/09/30 09:28:39;;;;;;;11.85;3.15;;;;;;;26.67;31.12;97788.72;5023144;28;20115;-35
2021/09/30 09:31:05;;;;;;;12.98;3.65;;;;;;;26.67;30.98;97780.84;5022164;28;21166;-28
2021/09/30 09:33:34;;;;;;;11.82;3.33;;;;;;;26.68;30.96;97787.78;5003065;28;20029;-29
2021/09/30 09:36:13;;;;;;;8.00;3.20;;;;;;;26.69;31.06;97789.53;5024729;28;20032;-33
2021/09/30 09:38:41;;;;;;;13.80;3.42;;;;;;;26.69;31.15;97785.09;5009540;28;20026;-37
2021/09/30 09:41:06;;;;;;;13.98;2.92;;;;;;;26.70;31.04;97788.59;5024247;28;20622;-32
2021/09/30 09:43:35;;;;;;;13.32;3.70;;;;;;;26.70;31.07;97780.72;4967190;28;1134632;-29
2021/09/30 09:46:01;;;;;;;15.13;3.70;;;;;;;26.72;31.27;97789.38;5026134;28;20536;-36
2021/09/30 09:48:26;;;;;;;10.93;3.15;;;;;;;26.72;31.16;97777.09;5024497;28;20029;-36
2021/09/30 09:50:52;;;;;;;9.30;2.58;;;;;;;26.74;31.07;97783.13;5024497;28;20711;-33
2021/09/30 09:53:18;;;;;;;10.25;2.97;;;;;;;26.73;31.21;97776.19;5025529;28;20139;-30
2021/09/30 09:55:44;;;;;;;7.75;2.47;;;;;;;26.75;31.19;97778.75;5020267;28;20025;-36
2021/09/30 09:58:11;;;;;;;7.47;2.70;;;;;;;26.76;31.31;97769.94;5023093;28;20033;-30
2021/09/30 10:00:36;;;;;;;10.60;3.00;;;;;;;26.76;31.32;97769.94;5003492;28;20143;-34
2021/09/30 10:03:17;;;;;;;8.93;2.80;;;;;;;26.76;31.38;97767.31;5022869;28;20025;-35
2021/09/30 10:05:43;;;;;;;8.82;2.92;;;;;;;26.78;31.20;97762.84;5022296;28;20032;-35
2021/09/30 10:08:09;;;;;;;9.10;2.90;;;;;;;26.79;31.40;97768.94;5023914;28;20079;-30
2021/09/30 10:10:35;;;;;;;10.23;2.72;;;;;;;26.78;31.37;97765.47;5022359;28;20027;-31
2021/09/30 10:13:01;;;;;;;8.02;2.45;;;;;;;26.79;30.99;97753.16;5002264;28;20045;-36
2021/09/30 10:15:26;;;;;;;6.85;2.40;;;;;;;26.79;31.17;97754.03;5004663;28;20127;-33
2021/09/30 10:17:52;;;;;;;9.18;2.45;;;;;;;26.80;31.20;97750.47;4999274;28;20030;-29
2021/09/30 10:20:17;;;;;;;8.85;3.53;;;;;;;26.81;31.38;97746.09;5002579;28;20518;-34
2021/09/30 10:22:49;;;;;;;7.03;2.63;;;;;;;26.81;31.36;97746.91;4997065;28;20039;-33
2021/09/30 10:25:15;;;;;;;8.68;2.70;;;;;;;26.81;31.39;97746.91;5004826;28;20767;-35
2021/09/30 10:27:41;;;;;;;11.88;2.40;;;;;;;26.81;31.39;97741.66;5003371;28;20029;-35
2021/09/30 10:30:06;;;;;;;7.28;2.42;;;;;;;26.81;31.47;97739.03;5000538;28;20072;-37
2021/09/30 10:32:48;;;;;;;5.45;2.20;;;;;;;26.83;31.50;97733.72;5004536;28;20623;-30
2021/09/30 10:35:13;;;;;;;5.03;2.08;;;;;;;26.84;31.59;97738.91;5001326;28;20041;-33
2021/09/30 10:37:39;;;;;;;4.55;1.48;;;;;;;26.83;31.57;97729.31;5002022;28;20586;-30
2021/09/30 10:40:21;;;;;;;11.30;2.22;;;;;;;26.84;31.56;97730.16;5002049;28;20029;-33
2021/09/30 10:42:56;;;;;;;8.80;1.83;;;;;;;26.86;31.77;97733.59;5004874;28;20675;-30
2021/09/30 10:45:26;;;;;;;7.35;1.98;;;;;;;26.86;31.82;97734.41;5005326;28;20025;-36
2021/09/30 10:47:53;;;;;;;5.22;1.90;;;;;;;26.87;31.91;97736.16;5003475;28;20084;-30
2021/09/30 10:50:18;;;;;;;5.10;1.65;;;;;;;26.87;31.93;97728.28;5004227;28;20060;-33
2021/09/30 10:52:54;;;;;;;6.28;1.65;;;;;;;26.88;32.11;97727.34;5006325;28;20033;-31
2021/09/30 10:55:22;;;;;;;4.40;1.58;;;;;;;26.91;31.91;97725.47;5004126;28;20040;-33
2021/09/30 10:57:49;;;;;;;5.43;1.98;;;;;;;26.91;32.03;97725.47;5003413;28;20041;-34
2021/09/30 11:00:17;;;;;;;4.80;1.55;;;;;;;26.91;32.03;97726.34;5002671;28;20507;-36
2021/09/30 11:03:10;;;;;;;5.13;1.90;;;;;;;26.93;31.95;97723.66;5003234;28;20484;-35
2021/09/30 11:05:42;;;;;;;8.68;1.38;;;;;;;26.93;31.89;97718.41;5002660;28;20025;-36
2021/09/30 11:08:16;;;;;;;4.18;1.70;;;;;;;26.94;31.89;97720.09;4999595;28;20029;-36
2021/09/30 11:11:05;;;;;;;3.25;1.60;;;;;;;26.93;32.04;97719.25;5004421;28;20036;-34
2021/09/30 11:13:33;;;;;;;5.85;1.75;;;;;;;26.94;32.06;97714.84;4998151;28;20034;-30
2021/09/30 11:15:59;;;;;;;9.32;1.52;;;;;;;26.93;31.53;97723.66;4995296;28;20444;-39
2021/09/30 11:18:56;;;;;;;4.13;1.50;;;;;;;26.95;31.09;97724.47;4993914;28;20056;-35
2021/09/30 11:21:28;;;;;;;4.10;1.15;;;;;;;26.92;30.00;97720.16;4997208;28;20385;-36
2021/09/30 11:23:54;;;;;;;2.47;1.10;;;;;;;26.93;30.30;97721.03;4994511;28;20131;-33
2021/09/30 11:26:19;;;;;;;4.68;1.38;;;;;;;26.96;29.42;97713.03;4998900;28;20112;-34
2021/09/30 11:28:44;;;;;;;5.10;1.35;;;;;;;27.02;28.80;97707.50;4999534;28;20021;-37
2021/09/30 11:31:26;;;;;;;3.72;1.20;;;;;;;27.12;28.35;97702.72;4997769;28;20049;-32
2021/09/30 11:33:53;;;;;;;30.52;1.27;;;;;;;27.22;28.58;97698.72;4999550;28;20034;-39
2021/09/30 11:36:19;;;;;;;3.40;1.38;;;;;;;27.35;28.53;97699.03;5001917;28;20164;-34
2021/09/30 11:38:44;;;;;;;2.38;1.00;;;;;;;27.46;27.91;97685.38;5000306;28;20068;-34
2021/09/30 11:41:10;;;;;;;3.38;1.25;;;;;;;27.58;26.78;97683.94;5000527;28;20034;-35
2021/09/30 11:43:35;;;;;;;5.88;1.10;;;;;;;27.69;26.80;97680.84;4999607;28;20167;-34
2021/09/30 11:46:23;;;;;;;2.67;0.85;;;;;;;27.79;26.73;97681.28;4999780;28;20568;-30
2021/09/30 11:48:59;;;;;;;6.05;0.95;;;;;;;27.90;27.23;97680.75;5002146;28;20105;-29
2021/09/30 11:51:47;;;;;;;3.95;1.33;;;;;;;27.99;27.34;97672.41;5002999;28;20028;-33
2021/09/30 11:54:14;;;;;;;4.85;1.30;;;;;;;28.09;26.30;97674.59;4991802;28;20053;-32
2021/09/30 11:56:41;;;;;;;2.60;0.80;;;;;;;28.18;25.54;97667.09;5002460;28;20563;-35
2021/09/30 11:59:07;;;;;;;2.13;0.73;;;;;;;28.28;25.51;97667.53;5001944;28;20532;-31
2021/09/30 12:01:41;;;;;;;4.68;1.00;;;;;;;28.35;25.60;97657.53;4994995;28;20473;-29
2021/09/30 12:04:07;;;;;;;2.90;1.10;;;;;;;28.43;26.22;97655.38;5000091;28;20026;-29
2021/09/30 12:06:40;;;;;;;1.30;0.70;;;;;;;28.50;25.91;97655.06;4996964;28;20022;-30
2021/09/30 12:09:07;;;;;;;2.22;0.93;;;;;;;28.56;25.92;97649.47;5005847;28;20116;-32
2021/09/30 12:11:35;;;;;;;4.35;0.90;;;;;;;28.59;26.13;97638.75;5002194;28;20030;-30
2021/09/30 12:14:00;;;;;;;2.03;0.77;;;;;;;28.64;26.52;97635.91;5003093;28;20884;-32
2021/09/30 12:16:26;;;;;;;2.33;0.95;;;;;;;28.69;26.34;97633.88;5005881;28;20233;-30
2021/09/30 12:19:01;;;;;;;3.15;1.08;;;;;;;28.74;26.97;97636.25;4999112;28;20975;-31
2021/09/30 12:21:39;;;;;;;2.63;1.10;;;;;;;28.77;26.55;97636.09;5000042;28;20025;-36
2021/09/30 12:24:08;;;;;;;1.52;0.80;;;;;;;28.78;27.05;97635.16;5001392;28;20033;-31
2021/09/30 12:26:34;;;;;;;2.53;1.02;;;;;;;28.78;27.27;97632.53;5005236;28;20078;-34
2021/09/30 12:29:00;;;;;;;3.63;1.10;;;;;;;28.76;27.07;97629.13;5003355;28;20033;-31
2021/09/30 12:31:25;;;;;;;2.70;0.98;;;;;;;28.74;27.03;97625.69;5000276;28;20045;-33
2021/09/30 12:33:51;;;;;;;2.63;0.93;;;;;;;28.69;26.90;97626.78;4998052;28;20800;-36
2021/09/30 12:36:19;;;;;;;3.45;1.42;;;;;;;28.64;27.13;97615.63;5003146;28;20061;-33
2021/09/30 12:39:01;;;;;;;5.13;1.33;;;;;;;28.60;27.59;97618.53;4997428;28;20038;-29
2021/09/30 12:41:26;;;;;;;;;;;;;;;28.54;27.58;97609.16;5004649;28;20057;-30
2021/09/30 12:43:52;;;;;;;7.25;1.00;;;;;;;28.50;27.56;97615.50;5002362;28;21571;-29
2021/09/30 12:46:18;;;;;;;5.03;0.90;;;;;;;28.43;27.86;97605.28;5018307;28;20228;-34
2021/09/30 12:48:48;;;;;;;3.70;1.15;;;;;;;28.38;28.12;97598.53;5019323;28;20025;-34
2021/09/30 12:51:14;;;;;;;7.68;1.10;;;;;;;28.32;28.48;97599.69;5020214;28;20620;-30
2021/09/30 12:53:50;;;;;;;4.25;1.17;;;;;;;28.27;28.49;97591.19;5020471;28;20041;-32
2021/09/30 12:56:20;;;;;;;4.97;1.40;;;;;;;28.23;28.69;97594.88;5025823;28;20029;-27
2021/09/30 12:58:47;;;;;;;6.03;1.38;;;;;;;28.17;28.85;97596.88;5023174;28;20032;-35
2021/09/30 13:01:30;;;;;;;4.63;2.40;;;;;;;28.13;29.05;97589.19;5025587;28;20037;-36
2021/09/30 13:04:33;;;;;;;8.95;3.53;;;;;;;28.09;28.96;97593.78;5019736;28;20044;-33
2021/09/30 13:07:03;;;;;;;19.23;7.80;;;;;;;28.06;29.27;97593.09;5024058;28;20148;-35
2021/09/30 13:09:29;;;;;;;26.65;11.30;;;;;;;28.01;29.52;97586.25;5031312;28;20549;-31
2021/09/30 13:12:14;;;;;;;42.15;19.25;;;;;;;27.98;29.73;97588.19;5025758;28;20529;-29
2021/09/30 13:14:53;;;;;;;57.17;27.30;;;;;;;27.95;29.79;97585.72;5027117;28;20391;-32
2021/09/30 13:17:19;;;;;;;67.30;34.60;;;;;;;27.91;30.02;97580.59;5028289;28;20018;-28
2021/09/30 13:19:58;;;;;;;77.10;38.13;;;;;;;27.89;30.22;97576.34;5023959;28;20037;-34
2021/09/30 13:22:34;;;;;;;70.00;37.05;;;;;;;27.87;30.24;97573.78;5021169;28;20021;-28
2021/09/30 13:25:05;;;;;;;69.57;35.15;;;;;;;27.84;30.29;97568.66;5022481;28;20039;-30
2021/09/30 13:27:32;;;;;;;68.53;36.00;;;;;;;27.83;30.40;97561.69;5026308;28;20726;-34
2021/09/30 13:29:58;;;;;;;74.40;34.63;;;;;;;27.81;30.52;97562.69;5025464;28;20338;-36
2021/09/30 13:32:26;;;;;;;62.03;32.78;;;;;;;27.80;30.81;97561.81;5027168;28;20041;-33
2021/09/30 13:34:51;;;;;;;70.68;31.40;;;;;;;27.78;30.94;97563.69;5030143;28;20403;-30
2021/09/30 13:37:17;;;;;;;58.20;28.83;;;;;;;27.76;30.97;97549.72;5028418;28;20021;-35
2021/09/30 13:39:42;;;;;;;51.50;26.73;;;;;;;27.74;31.02;97552.47;5012931;28;20247;-31
2021/09/30 13:42:08;;;;;;;51.05;25.23;;;;;;;27.74;31.16;97546.34;5026204;28;20021;-30
2021/09/30 13:44:34;;;;;;;43.50;23.13;;;;;;;27.72;31.28;97545.56;5031008;28;20152;-32
2021/09/30 13:46:59;;;;;;;41.30;22.88;;;;;;;27.71;31.34;97541.22;5028082;28;20021;-29
2021/09/30 13:49:24;;;;;;;34.45;15.45;;;;;;;27.70;31.00;97543.00;5023406;28;20039;-34
2021/09/30 13:51:50;;;;;;;15.80;8.32;;;;;;;27.68;29.09;97547.47;5025246;28;20329;-35
2021/09/30 13:54:15;;;;;;;20.15;8.00;;;;;;;27.63;28.55;97536.31;5029822;28;20811;-35
2021/09/30 13:56:41;;;;;;;16.98;6.43;;;;;;;27.60;27.34;97539.06;5029751;28;20032;-33
2021/09/30 13:59:06;;;;;;;13.27;6.65;;;;;;;27.54;27.31;97537.63;5029959;28;20102;-35
2021/09/30 14:01:32;;;;;;;14.98;7.57;;;;;;;27.52;27.68;97536.81;5039999;28;20033;-28
2021/09/30 14:03:57;;;;;;;18.30;7.57;;;;;;;27.48;27.97;97525.59;5027648;28;20040;-34
2021/09/30 14:06:23;;;;;;;21.90;8.85;;;;;;;27.48;28.47;97537.88;5025069;28;20028;-31
2021/09/30 14:08:52;;;;;;;17.42;7.70;;;;;;;27.46;28.77;97526.59;5028708;28;20031;-33
2021/09/30 14:11:18;;;;;;;18.27;7.55;;;;;;;27.45;29.08;97528.38;5023062;28;20024;-32
2021/09/30 14:13:43;;;;;;;17.95;7.65;;;;;;;27.45;29.37;97530.13;5016541;28;20036;-30
2021/09/30 14:16:09;;;;;;;13.70;5.18;;;;;;;27.44;29.75;97525.81;5021743;28;20036;-32
2021/09/30 14:18:34;;;;;;;13.05;5.07;;;;;;;27.44;29.50;97515.28;5025067;28;20033;-30
2021/09/30 14:21:00;;;;;;;15.65;4.60;;;;;;;27.42;29.38;97520.59;5027668;28;20032;-33
2021/09/30 14:23:25;;;;;;;13.65;5.13;;;;;;;27.42;29.35;97514.50;5024158;28;20755;-32
2021/09/30 14:25:54;;;;;;;15.23;5.07;;;;;;;27.39;29.91;97511.09;5022112;28;20025;-36
2021/09/30 14:28:20;;;;;;;16.80;4.35;;;;;;;27.38;29.46;97512.03;5028174;28;20025;-34